Time;durP1;ratioP1;P1;durP2;ratioP2;P2;SDS_P1;SDS_P2;PMS_P1;PMS_P2;Temp;Humidity;BMP_temperature;BMP_pressure;BME280_temperature;BME280_humidity;BME280_pressure;Samples;Min_cycle;Max_cycle;Signal;HPM_P1;HPM_P2
2022/10/01 00:01:58;;;;;;;11.38;4.95;;;;;;;16.24;63.50;99704.63;5012140;28;20021;-87
2022/10/01 00:04:24;;;;;;;9.32;5.18;;;;;;;16.35;62.83;99687.94;5012157;28;20025;-88
2022/10/01 00:06:50;;;;;;;5.70;5.18;;;;;;;16.52;62.13;99678.22;5011804;28;20025;-87
2022/10/01 00:09:15;;;;;;;9.15;5.47;;;;;;;16.66;61.71;99698.31;5013075;28;20038;-88
2022/10/01 00:11:41;;;;;;;8.43;5.72;;;;;;;16.32;62.55;99692.31;5013032;28;20057;-87
2022/10/01 00:14:07;;;;;;;5.90;4.97;;;;;;;16.29;62.42;99673.31;5013603;28;20030;-87
2022/10/01 00:16:33;;;;;;;9.60;4.55;;;;;;;16.02;64.12;99689.22;5011628;28;20056;-87
2022/10/01 00:18:59;;;;;;;9.18;5.05;;;;;;;16.45;62.54;99693.00;5028726;28;20112;-88
2022/10/01 00:21:30;;;;;;;8.40;5.75;;;;;;;16.51;62.68;99708.47;5028372;28;20587;-88
2022/10/01 00:23:59;;;;;;;7.43;4.70;;;;;;;16.91;61.54;99695.19;5008702;28;20081;-88
2022/10/01 00:26:27;;;;;;;14.70;4.97;;;;;;;17.01;61.07;99704.25;5012026;28;20030;-87
2022/10/01 00:28:58;;;;;;;6.55;4.63;;;;;;;16.89;61.02;99693.91;5013042;28;20037;-87
2022/10/01 00:31:25;;;;;;;9.07;4.93;;;;;;;16.92;60.95;99671.38;5028640;28;20025;-88
2022/10/01 00:33:52;;;;;;;8.63;5.03;;;;;;;17.01;60.56;99690.94;5028019;28;20030;-88
2022/10/01 00:36:18;;;;;;;12.43;5.80;;;;;;;17.11;59.70;99687.53;5011388;28;20018;-88
2022/10/01 00:38:45;;;;;;;5.22;4.28;;;;;;;16.76;60.99;99679.94;5011335;28;20052;-87
2022/10/01 00:41:11;;;;;;;10.15;4.95;;;;;;;17.04;60.40;99678.09;5011406;28;20129;-87
2022/10/01 00:43:41;;;;;;;6.25;4.90;;;;;;;16.28;62.32;99678.13;5011669;28;20202;-87
2022/10/01 00:46:22;;;;;;;12.27;5.28;;;;;;;16.41;62.59;99686.47;5011137;28;20053;-87
2022/10/01 00:49:05;;;;;;;7.15;5.28;;;;;;;16.12;63.64;99686.63;5007993;28;20026;-87
2022/10/01 00:51:39;;;;;;;7.07;5.22;;;;;;;15.99;64.38;99690.75;5008209;28;20026;-88
2022/10/01 00:54:10;;;;;;;5.88;4.53;;;;;;;15.85;64.55;99703.31;4997179;28;20484;-87
2022/10/01 00:56:37;;;;;;;10.50;5.55;;;;;;;15.60;65.67;99704.69;5012435;28;20029;-87
2022/10/01 00:59:03;;;;;;;9.23;5.63;;;;;;;15.75;65.24;99705.84;5010933;28;20030;-87
2022/10/01 01:01:29;;;;;;;7.25;4.82;;;;;;;16.04;63.96;99693.28;5011481;28;20030;-87
2022/10/01 01:03:55;;;;;;;8.52;4.97;;;;;;;15.96;64.47;99694.31;5011224;28;20028;-87
2022/10/01 01:06:21;;;;;;;9.77;5.45;;;;;;;16.09;63.64;99695.00;5012215;28;20030;-88
2022/10/01 01:08:52;;;;;;;5.13;4.47;;;;;;;15.81;64.47;99693.13;5011039;28;20053;-88
2022/10/01 01:11:56;;;;;;;11.43;5.57;;;;;;;15.98;63.72;99691.94;5010986;28;20036;-88
2022/10/01 01:14:35;;;;;;;10.23;5.60;;;;;;;15.81;64.38;99690.28;4963193;28;20492;-87
2022/10/01 01:17:11;;;;;;;9.38;5.22;;;;;;;15.88;64.39;99686.81;5016376;28;20018;-87
2022/10/01 01:20:10;;;;;;;10.25;5.47;;;;;;;15.94;63.64;99685.41;5030723;28;20033;-87
2022/10/01 01:22:43;;;;;;;10.85;5.53;;;;;;;15.70;64.50;99682.38;5016390;28;20030;-87
2022/10/01 01:25:20;;;;;;;10.15;5.70;;;;;;;15.81;64.31;99677.03;5011191;28;20018;-87
2022/10/01 01:28:03;;;;;;;8.77;4.80;;;;;;;16.09;63.60;99686.53;5011174;28;20040;-87
2022/10/01 01:30:31;;;;;;;12.57;5.50;;;;;;;16.04;63.89;99689.66;5011116;28;20536;-87
2022/10/01 01:33:05;;;;;;;7.50;5.43;;;;;;;16.09;63.44;99695.84;5010869;28;20026;-87
2022/10/01 01:35:41;;;;;;;13.30;6.20;;;;;;;15.79;64.64;99701.94;5028395;28;20053;-88
2022/10/01 01:38:13;;;;;;;11.88;6.60;;;;;;;16.09;63.95;99698.66;5030853;28;20022;-87
2022/10/01 01:40:42;;;;;;;10.10;6.35;;;;;;;16.06;63.84;99696.59;5030723;28;20463;-88
2022/10/01 01:43:16;;;;;;;7.30;5.65;;;;;;;15.82;64.76;99689.94;5030539;28;20473;-87
2022/10/01 01:45:42;;;;;;;9.50;6.40;;;;;;;15.45;65.79;99681.78;5021451;28;20533;-87
2022/10/01 01:48:12;;;;;;;10.05;6.47;;;;;;;15.44;66.03;99686.56;5010802;28;20026;-87
2022/10/01 01:51:07;;;;;;;10.35;6.30;;;;;;;15.56;65.69;99693.31;5027235;28;20026;-87
2022/10/01 01:53:32;;;;;;;8.15;5.55;;;;;;;15.70;65.30;99704.13;5027057;28;20129;-87
2022/10/01 01:55:59;;;;;;;9.45;6.63;;;;;;;15.75;65.14;99706.66;5010654;28;20124;-87
2022/10/01 01:58:26;;;;;;;8.02;5.38;;;;;;;15.92;64.68;99704.69;5027111;28;20018;-87
2022/10/01 02:00:52;;;;;;;11.25;6.55;;;;;;;15.98;64.18;99698.38;5010786;28;20075;-87
2022/10/01 02:03:24;;;;;;;10.93;5.55;;;;;;;16.19;63.04;99704.94;5026520;28;20467;-87
2022/10/01 02:06:20;;;;;;;8.43;6.57;;;;;;;16.08;63.05;99697.03;5012749;28;20515;-87
2022/10/01 02:08:52;;;;;;;7.65;5.47;;;;;;;16.00;63.59;99720.59;5014286;28;20092;-88
2022/10/01 02:11:27;;;;;;;8.57;5.90;;;;;;;16.07;63.87;99728.41;5013943;28;20036;-88
2022/10/01 02:14:16;;;;;;;8.45;5.55;;;;;;;15.91;64.26;99711.50;5014167;28;20052;-87
2022/10/01 02:16:55;;;;;;;9.82;5.28;;;;;;;15.93;64.09;99709.16;5013390;28;20056;-88
2022/10/01 02:19:29;;;;;;;9.07;6.30;;;;;;;15.83;64.73;99702.84;5015734;28;20029;-87
2022/10/01 02:22:01;;;;;;;8.98;6.32;;;;;;;15.31;66.33;99699.13;5015256;28;20443;-87
2022/10/01 02:24:57;;;;;;;14.32;6.13;;;;;;;15.23;66.71;99711.38;5030596;28;20040;-87
2022/10/01 02:27:35;;;;;;;9.43;6.30;;;;;;;15.39;66.13;99723.50;5030497;28;20033;-87
2022/10/01 02:30:07;;;;;;;10.90;5.82;;;;;;;15.25;66.70;99734.34;5014255;28;20623;-87
2022/10/01 02:32:36;;;;;;;9.18;6.15;;;;;;;15.37;66.07;99713.75;5030764;28;20060;-87
2022/10/01 02:35:04;;;;;;;9.15;6.00;;;;;;;15.34;66.07;99725.75;5030173;28;20056;-87
2022/10/01 02:37:32;;;;;;;8.85;6.18;;;;;;;15.44;65.62;99719.56;5015272;28;20026;-88
2022/10/01 02:40:02;;;;;;;14.90;7.43;;;;;;;15.40;65.58;99718.66;5013313;28;20415;-87
2022/10/01 02:42:29;;;;;;;14.80;9.20;;;;;;;15.53;66.44;99736.31;5014066;28;20521;-88
2022/10/01 02:45:00;;;;;;;17.95;9.98;;;;;;;15.38;67.14;99732.31;5013594;28;20480;-87
2022/10/01 02:47:32;;;;;;;;;;;;;;;15.34;67.13;99731.41;4995279;28;20033;-88
2022/10/01 02:50:00;;;;;;;15.23;9.20;;;;;;;15.19;67.21;99725.34;4995405;28;19910;-87
2022/10/01 02:52:44;;;;;;;18.77;8.80;;;;;;;15.24;67.81;99733.56;5010715;28;20489;-87
2022/10/01 02:55:23;;;;;;;15.95;8.48;;;;;;;15.31;67.20;99735.75;5021080;28;20026;-88
2022/10/01 02:57:49;;;;;;;11.07;7.72;;;;;;;15.22;67.94;99726.63;5024607;28;20036;-87
2022/10/01 03:00:20;;;;;;;17.10;8.43;;;;;;;15.40;67.60;99739.22;5013550;28;20496;-87
2022/10/01 03:02:46;;;;;;;10.43;7.10;;;;;;;15.22;68.24;99738.72;5013416;28;20029;-87
2022/10/01 03:05:14;;;;;;;22.70;8.85;;;;;;;15.28;68.35;99740.09;5013252;28;20061;-88
2022/10/01 03:07:39;;;;;;;21.00;9.32;;;;;;;15.27;68.42;99754.56;5013434;28;20025;-87
2022/10/01 03:10:07;;;;;;;9.60;6.55;;;;;;;15.13;69.00;99747.31;5013396;28;20038;-88
2022/10/01 03:12:33;;;;;;;12.95;8.68;;;;;;;15.01;69.27;99745.41;5013418;28;20022;-87
2022/10/01 03:14:58;;;;;;;9.93;7.47;;;;;;;14.95;69.34;99741.19;5014684;28;20026;-87
2022/10/01 03:17:24;;;;;;;15.52;9.10;;;;;;;14.99;68.79;99742.13;5024341;28;20189;-87
2022/10/01 03:19:49;;;;;;;13.82;6.93;;;;;;;14.94;69.21;99728.28;5031391;28;20018;-87
2022/10/01 03:22:17;;;;;;;17.83;7.60;;;;;;;15.29;68.28;99724.03;5030587;28;20061;-86
2022/10/01 03:24:43;;;;;;;9.45;6.85;;;;;;;15.53;67.42;99720.22;5037870;28;20025;-86
2022/10/01 03:27:09;;;;;;;20.98;6.85;;;;;;;15.67;67.27;99719.78;5033272;28;20097;-87
2022/10/01 03:29:34;;;;;;;9.18;6.63;;;;;;;15.93;66.45;99717.63;5031313;28;20025;-87
2022/10/01 03:32:00;;;;;;;9.77;5.93;;;;;;;16.14;65.51;99729.41;5025304;28;20030;-87
2022/10/01 03:34:25;;;;;;;12.57;6.00;;;;;;;16.13;64.58;99741.06;5029082;28;20104;-87
2022/10/01 03:36:51;;;;;;;8.18;5.45;;;;;;;16.04;65.02;99735.59;5012770;28;20127;-87
2022/10/01 03:39:18;;;;;;;9.27;5.68;;;;;;;15.96;65.25;99748.72;5012727;28;20096;-88
2022/10/01 03:41:44;;;;;;;7.60;5.72;;;;;;;16.18;64.92;99731.50;5012625;28;20569;-87
2022/10/01 03:44:09;;;;;;;7.03;5.90;;;;;;;16.29;64.70;99729.75;5013803;28;20061;-87
2022/10/01 03:46:35;;;;;;;14.85;6.07;;;;;;;16.32;64.28;99725.38;5013366;28;20112;-87
2022/10/01 03:49:01;;;;;;;9.73;5.55;;;;;;;16.50;63.92;99754.00;5012459;28;20464;-88
2022/10/01 03:51:27;;;;;;;11.05;5.53;;;;;;;16.62;63.30;99759.50;5012409;28;20116;-88
2022/10/01 03:53:54;;;;;;;9.18;5.78;;;;;;;16.54;63.18;99763.38;5012198;28;20534;-88
2022/10/01 03:56:20;;;;;;;5.88;5.07;;;;;;;16.50;63.01;99768.13;5012324;28;20029;-87
2022/10/01 03:58:45;;;;;;;17.13;6.15;;;;;;;16.33;64.21;99758.88;5011814;28;20088;-88
2022/10/01 04:01:11;;;;;;;13.80;6.68;;;;;;;15.80;65.39;99765.59;5011101;28;20037;-88
2022/10/01 04:03:36;;;;;;;8.02;5.97;;;;;;;15.48;66.57;99770.41;5009018;28;20026;-88
2022/10/01 04:06:02;;;;;;;12.25;6.45;;;;;;;15.25;67.51;99763.38;5022699;28;20030;-87
2022/10/01 04:08:27;;;;;;;10.20;6.53;;;;;;;14.83;69.61;99780.66;5011840;28;20096;-87
2022/10/01 04:10:53;;;;;;;11.32;7.72;;;;;;;14.90;69.43;99786.50;5011725;28;20124;-87
2022/10/01 04:13:18;;;;;;;19.88;11.25;;;;;;;15.18;68.63;99791.31;5012327;28;20049;-87
2022/10/01 04:15:44;;;;;;;11.88;6.93;;;;;;;15.35;67.88;99800.66;5011759;28;20065;-87
2022/10/01 04:18:10;;;;;;;22.90;7.88;;;;;;;15.30;68.00;99799.72;5011919;28;20041;-87
2022/10/01 04:20:36;;;;;;;13.07;6.68;;;;;;;14.90;68.91;99775.25;5011795;28;20076;-87
2022/10/01 04:23:04;;;;;;;14.55;6.90;;;;;;;14.93;69.77;99791.41;5011559;28;20109;-88
2022/10/01 04:25:30;;;;;;;11.93;6.93;;;;;;;14.73;69.89;99767.91;5011778;28;20072;-88
2022/10/01 04:27:59;;;;;;;28.65;7.82;;;;;;;14.87;70.15;99807.75;5012083;28;20499;-87
2022/10/01 04:30:31;;;;;;;35.55;12.30;;;;;;;14.86;70.12;99813.75;5011508;28;20057;-87
2022/10/01 04:32:57;;;;;;;13.05;8.00;;;;;;;14.77;70.89;99815.88;5011678;28;20455;-87
2022/10/01 04:35:23;;;;;;;10.10;6.65;;;;;;;15.16;69.57;99827.50;5023654;28;20124;-88
2022/10/01 04:38:00;;;;;;;12.27;7.32;;;;;;;15.53;68.35;99812.44;5031350;28;20104;-88
2022/10/01 04:40:25;;;;;;;9.77;6.13;;;;;;;15.65;67.24;99808.72;5022349;28;20034;-88
2022/10/01 04:43:00;;;;;;;10.95;6.90;;;;;;;15.25;67.92;99799.16;5011660;28;20052;-88
2022/10/01 04:45:26;;;;;;;12.30;7.10;;;;;;;15.14;68.81;99810.13;5024092;28;20553;-88
2022/10/01 04:47:54;;;;;;;17.52;7.88;;;;;;;15.50;68.16;99801.84;5013469;28;20037;-88
2022/10/01 04:50:21;;;;;;;25.73;8.45;;;;;;;15.82;67.13;99793.44;5012602;28;20033;-88
2022/10/01 04:52:47;;;;;;;23.52;9.27;;;;;;;15.96;66.11;99770.47;5011385;28;20029;-88
2022/10/01 04:55:14;;;;;;;30.20;9.23;;;;;;;16.14;65.62;99787.84;5011704;28;20420;-88
2022/10/01 04:57:39;;;;;;;20.15;8.80;;;;;;;16.29;64.73;99805.97;5027548;28;20037;-88
2022/10/01 05:00:08;;;;;;;13.13;7.15;;;;;;;16.24;65.37;99792.94;5011808;28;20037;-87
2022/10/01 05:02:33;;;;;;;8.23;6.32;;;;;;;16.21;65.28;99792.84;5011926;28;20030;-87
2022/10/01 05:05:02;;;;;;;9.52;6.43;;;;;;;16.09;65.36;99777.66;5011289;28;20486;-88
2022/10/01 05:07:28;;;;;;;10.45;6.35;;;;;;;16.29;65.24;99774.91;5010733;28;20037;-88
2022/10/01 05:09:53;;;;;;;10.68;6.03;;;;;;;16.23;65.48;99765.09;5016658;28;20389;-88
2022/10/01 05:12:19;;;;;;;12.70;6.72;;;;;;;16.23;65.29;99767.91;5030656;28;20034;-88
2022/10/01 05:14:44;;;;;;;16.42;6.50;;;;;;;16.34;65.25;99760.50;5031266;28;20025;-87
2022/10/01 05:17:10;;;;;;;7.80;5.97;;;;;;;16.40;64.51;99761.84;5031004;28;20499;-88
2022/10/01 05:19:35;;;;;;;9.40;5.40;;;;;;;16.47;64.81;99751.91;5026433;28;20041;-88
2022/10/01 05:22:00;;;;;;;9.63;5.70;;;;;;;16.40;65.37;99752.56;5027922;28;20045;-88
2022/10/01 05:24:26;;;;;;;11.55;5.93;;;;;;;16.56;65.10;99763.84;5027363;28;20049;-88
2022/10/01 05:26:54;;;;;;;9.25;5.95;;;;;;;16.73;64.34;99782.38;5011368;28;20033;-88
2022/10/01 05:29:19;;;;;;;7.30;5.88;;;;;;;16.81;63.89;99780.50;5015226;28;20040;-88
2022/10/01 05:31:45;;;;;;;23.75;7.57;;;;;;;17.10;63.00;99772.66;5029829;28;20025;-88
2022/10/01 05:34:14;;;;;;;14.18;6.55;;;;;;;17.36;62.16;99799.41;5012022;28;20030;-88
2022/10/01 05:36:39;;;;;;;12.00;6.20;;;;;;;17.15;61.23;99778.03;5012475;28;20037;-88
2022/10/01 05:39:05;;;;;;;11.13;6.22;;;;;;;16.74;63.65;99805.75;5010806;28;20088;-88
2022/10/01 05:41:31;;;;;;;8.80;6.00;;;;;;;17.18;63.20;99824.50;5012748;28;20064;-88
2022/10/01 05:43:56;;;;;;;16.67;6.97;;;;;;;17.28;62.65;99806.94;5014794;28;20029;-88
2022/10/01 05:46:22;;;;;;;16.83;7.10;;;;;;;17.20;62.32;99811.63;5015087;28;20511;-89
2022/10/01 05:48:48;;;;;;;21.15;7.57;;;;;;;17.01;63.04;99809.63;5030973;28;20496;-88
2022/10/01 05:51:15;;;;;;;16.50;7.95;;;;;;;17.25;62.78;99811.34;5016978;28;20036;-89
2022/10/01 05:53:40;;;;;;;9.45;7.32;;;;;;;17.39;62.77;99807.19;5014815;28;20030;-88
2022/10/01 05:56:06;;;;;;;12.65;7.35;;;;;;;17.03;63.73;99804.41;5015896;28;20083;-88
2022/10/01 05:58:32;;;;;;;14.73;7.35;;;;;;;17.12;63.30;99838.09;5014286;28;20160;-88
2022/10/01 06:00:57;;;;;;;20.25;13.93;;;;;;;17.39;62.29;99813.63;5013948;28;20466;-88
2022/10/01 06:03:24;;;;;;;41.60;35.30;;;;;;;17.60;61.58;99828.56;5014620;28;20022;-88
2022/10/01 06:05:50;;;;;;;19.50;13.20;;;;;;;17.66;61.05;99821.41;5014905;28;20060;-88
2022/10/01 06:08:16;;;;;;;29.98;8.85;;;;;;;17.60;61.08;99825.72;5014051;28;20058;-91
2022/10/01 06:10:41;;;;;;;15.13;7.10;;;;;;;17.52;60.47;99814.28;5013446;28;20487;-88
2022/10/01 06:13:07;;;;;;;14.20;7.70;;;;;;;17.62;60.52;99835.47;5013587;28;20030;-89
2022/10/01 06:15:36;;;;;;;16.65;7.30;;;;;;;17.39;60.83;99824.94;5014469;28;20030;-88
2022/10/01 06:18:06;;;;;;;18.98;7.10;;;;;;;17.66;60.69;99835.56;5014072;28;20476;-89
2022/10/01 06:20:32;;;;;;;8.30;6.28;;;;;;;18.05;59.80;99827.00;5009246;28;20091;-90
2022/10/01 06:22:58;;;;;;;8.95;6.13;;;;;;;18.18;59.04;99835.28;5015136;28;20049;-88
2022/10/01 06:25:28;;;;;;;10.65;6.45;;;;;;;18.33;58.17;99825.03;5014913;28;20071;-88
2022/10/01 06:27:56;;;;;;;8.82;6.80;;;;;;;18.80;56.88;99845.56;5013848;28;20480;-88
2022/10/01 06:30:25;;;;;;;9.68;6.18;;;;;;;18.69;57.17;99853.91;5008572;28;20511;-89
2022/10/01 06:32:52;;;;;;;14.07;6.55;;;;;;;18.97;56.73;99857.56;5014115;28;20032;-89
2022/10/01 06:35:19;;;;;;;19.23;8.25;;;;;;;18.48;57.77;99826.09;5013682;28;20041;-88
2022/10/01 06:37:45;;;;;;;11.95;7.45;;;;;;;18.37;58.56;99826.72;5030426;28;20029;-88
2022/10/01 06:40:11;;;;;;;10.18;6.93;;;;;;;18.65;58.05;99819.88;5031727;28;20159;-87
2022/10/01 06:42:36;;;;;;;7.95;6.18;;;;;;;18.79;57.10;99819.28;5012775;28;20068;-88
2022/10/01 06:45:02;;;;;;;7.20;5.22;;;;;;;18.86;56.55;99829.88;5032192;28;20025;-88
2022/10/01 06:47:28;;;;;;;8.93;6.05;;;;;;;18.61;57.04;99833.16;5033528;28;20103;-89
2022/10/01 06:49:58;;;;;;;13.30;6.80;;;;;;;18.48;57.87;99814.75;5017280;28;20468;-88
2022/10/01 06:55:07;;;;;;;9.10;5.95;;;;;;;18.93;56.36;99826.34;5014273;28;20044;-88
2022/10/01 06:57:33;;;;;;;8.32;7.18;;;;;;;18.93;56.91;99827.13;5010490;28;20023;-89
2022/10/01 06:59:59;;;;;;;7.53;5.88;;;;;;;19.28;56.12;99822.38;5000084;28;20030;-89
2022/10/01 07:02:31;;;;;;;11.93;6.00;;;;;;;19.32;55.30;99820.38;5001899;28;20457;-88
2022/10/01 07:05:00;;;;;;;9.95;5.57;;;;;;;19.94;54.32;99829.59;5007353;28;20026;-89
2022/10/01 07:07:34;;;;;;;9.43;5.23;;;;;;;20.17;52.48;99842.78;4999924;28;20153;-88
2022/10/01 07:10:01;;;;;;;10.15;5.85;;;;;;;19.97;53.62;99830.81;5015144;28;20049;-89
2022/10/01 07:12:27;;;;;;;9.27;5.05;;;;;;;19.88;53.73;99833.97;5011411;28;20088;-86
2022/10/01 07:14:53;;;;;;;8.18;5.90;;;;;;;19.99;52.92;99859.66;5029251;28;20025;-85
2022/10/01 07:17:19;;;;;;;7.20;5.13;;;;;;;20.17;52.54;99839.94;5012363;28;20028;-86
2022/10/01 07:19:45;;;;;;;6.55;5.25;;;;;;;20.47;52.25;99850.34;5012523;28;20105;-86
2022/10/01 07:22:10;;;;;;;8.40;4.68;;;;;;;20.93;51.87;99849.03;5012477;28;20079;-86
2022/10/01 07:24:36;;;;;;;11.18;5.40;;;;;;;20.81;51.43;99841.69;5012518;28;20030;-86
2022/10/01 07:27:01;;;;;;;6.47;4.78;;;;;;;21.52;50.87;99844.47;5012252;28;20021;-86
2022/10/01 07:29:29;;;;;;;10.07;5.75;;;;;;;21.41;50.84;99833.84;5012393;28;20022;-86
2022/10/01 07:31:59;;;;;;;8.93;6.15;;;;;;;21.65;51.91;99853.44;5012438;28;20420;-86
2022/10/01 07:34:31;;;;;;;12.10;5.65;;;;;;;22.09;50.39;99866.56;5028512;28;20034;-86
2022/10/01 07:36:57;;;;;;;9.15;5.85;;;;;;;22.32;48.91;99859.69;5012355;28;20524;-86
2022/10/01 07:39:22;;;;;;;8.07;5.47;;;;;;;22.36;48.24;99834.84;5028340;28;20057;-86
2022/10/01 07:41:50;;;;;;;18.23;5.25;;;;;;;22.34;47.60;99842.19;5012252;28;20501;-86
2022/10/01 07:44:15;;;;;;;11.20;5.63;;;;;;;21.98;47.99;99826.72;5011768;28;20021;-86
2022/10/01 07:46:40;;;;;;;9.07;5.70;;;;;;;21.79;49.02;99838.47;5012453;28;20092;-86
2022/10/01 07:49:07;;;;;;;9.00;5.72;;;;;;;22.19;48.40;99844.22;5012076;28;20030;-86
2022/10/01 07:51:33;;;;;;;8.32;5.78;;;;;;;22.76;47.42;99829.13;5013410;28;20084;-86
2022/10/01 07:53:58;;;;;;;8.98;5.50;;;;;;;22.77;45.99;99827.13;5013176;28;20029;-86
2022/10/01 07:56:25;;;;;;;12.73;5.72;;;;;;;23.12;45.02;99826.19;5028696;28;20018;-86
2022/10/01 07:58:55;;;;;;;6.88;5.15;;;;;;;23.48;44.39;99824.44;5011923;28;20049;-86
2022/10/01 08:01:21;;;;;;;9.02;5.05;;;;;;;23.38;43.68;99812.66;5028205;28;20022;-86
2022/10/01 08:03:53;;;;;;;13.63;6.13;;;;;;;23.29;43.95;99832.28;5011496;28;20021;-86
2022/10/01 08:06:20;;;;;;;10.63;5.65;;;;;;;23.54;43.58;99835.00;5011745;28;20026;-86
2022/10/01 08:08:46;;;;;;;13.25;5.22;;;;;;;23.70;43.31;99805.97;5011824;28;20061;-86
2022/10/01 08:11:13;;;;;;;51.10;22.55;;;;;;;23.81;42.37;99822.22;5011981;28;20117;-86
2022/10/01 08:13:40;;;;;;;16.83;10.25;;;;;;;23.84;42.58;99824.22;5011762;28;20510;-86
2022/10/01 08:16:08;;;;;;;79.22;32.20;;;;;;;23.62;42.97;99801.53;5011770;28;20056;-86
2022/10/01 08:18:35;;;;;;;16.52;8.45;;;;;;;23.48;43.04;99791.03;5024150;28;20089;-86
2022/10/01 08:21:01;;;;;;;35.92;17.10;;;;;;;23.50;43.82;99790.59;5018736;28;20053;-86
2022/10/01 08:23:28;;;;;;;21.73;12.73;;;;;;;23.58;43.32;99791.34;4993216;28;20489;-87
2022/10/01 08:25:59;;;;;;;53.28;23.25;;;;;;;23.80;43.27;99781.41;5008667;28;20026;-86
2022/10/01 08:28:25;;;;;;;13.63;7.97;;;;;;;23.80;42.21;99760.63;5012660;28;20546;-86
2022/10/01 08:30:50;;;;;;;16.30;8.55;;;;;;;23.97;43.10;99762.53;5011378;28;20112;-86
2022/10/01 08:33:18;;;;;;;39.53;18.33;;;;;;;24.04;43.27;99718.84;5012533;28;20029;-86
2022/10/01 08:35:44;;;;;;;31.20;14.55;;;;;;;24.62;42.52;99749.69;5011261;28;20018;-86
2022/10/01 08:38:11;;;;;;;12.85;7.18;;;;;;;24.87;41.66;99762.13;5011018;28;20419;-86
2022/10/01 08:40:48;;;;;;;13.10;8.05;;;;;;;24.84;41.21;99768.69;5011102;28;20022;-86
2022/10/01 08:43:30;;;;;;;14.13;6.97;;;;;;;24.99;41.11;99770.16;5010962;28;20033;-86
2022/10/01 08:46:05;;;;;;;19.50;5.90;;;;;;;24.87;40.71;99777.22;5010888;28;20029;-86
2022/10/01 08:48:52;;;;;;;5.78;5.13;;;;;;;24.88;41.38;99798.88;5010840;28;20566;-85
2022/10/01 08:51:44;;;;;;;7.95;6.03;;;;;;;24.71;41.83;99823.53;5010845;28;20021;-86
2022/10/01 08:54:40;;;;;;;10.20;6.10;;;;;;;24.68;41.95;99808.06;5010452;28;20029;-86
2022/10/01 08:57:29;;;;;;;8.30;5.82;;;;;;;24.46;42.26;99807.44;5010747;28;20556;-86
2022/10/01 09:00:02;;;;;;;7.82;5.57;;;;;;;24.49;42.36;99778.00;5010818;28;20030;-86
2022/10/01 09:02:31;;;;;;;10.85;6.43;;;;;;;24.34;42.81;99774.50;5010569;28;20528;-86
2022/10/01 09:04:59;;;;;;;12.07;6.85;;;;;;;24.26;43.06;99790.06;5010727;28;20081;-86
2022/10/01 09:07:27;;;;;;;12.40;6.43;;;;;;;24.42;42.79;99803.00;5010623;28;20412;-86
2022/10/01 09:10:23;;;;;;;25.80;9.45;;;;;;;24.40;43.20;99787.09;5008990;28;20514;-85
2022/10/01 09:13:31;;;;;;;12.20;5.88;;;;;;;24.51;42.78;99784.13;5010400;28;20029;-87
2022/10/01 09:16:02;;;;;;;10.48;6.68;;;;;;;24.72;43.25;99808.00;5025932;28;20416;-86
2022/10/01 09:19:03;;;;;;;8.55;5.50;;;;;;;24.65;41.81;99813.81;5004839;28;20419;-86
2022/10/01 09:21:37;;;;;;;;;;;;;;;24.71;42.46;99825.59;5006673;28;20042;-86
2022/10/01 09:24:11;;;;;;;11.88;6.22;;;;;;;24.56;42.80;99802.88;5005583;28;19916;-86
2022/10/01 09:26:43;;;;;;;10.73;6.43;;;;;;;24.56;43.06;99808.59;5010222;28;20507;-85
2022/10/01 09:29:18;;;;;;;14.60;5.47;;;;;;;24.49;42.36;99815.16;5009288;28;20087;-86
2022/10/01 09:31:47;;;;;;;10.88;6.68;;;;;;;24.42;42.36;99785.84;5021507;28;20188;-85
2022/10/01 09:34:26;;;;;;;13.55;6.18;;;;;;;24.78;42.24;99808.38;5009924;28;20033;-86
2022/10/01 09:37:04;;;;;;;15.18;7.55;;;;;;;24.74;41.89;99813.31;5007854;28;20561;-85
2022/10/01 09:40:26;;;;;;;13.93;7.05;;;;;;;24.84;41.14;99795.25;5020877;28;20467;-86
2022/10/01 09:42:51;;;;;;;16.50;7.35;;;;;;;24.91;41.68;99763.69;4983602;28;20489;-86
2022/10/01 09:45:24;;;;;;;45.08;16.17;;;;;;;24.87;40.95;99742.91;4990534;28;20092;-85
2022/10/01 09:47:52;;;;;;;58.22;20.85;;;;;;;24.64;41.92;99767.25;4990700;28;20042;-84
2022/10/01 09:50:33;;;;;;;26.92;11.23;;;;;;;24.57;42.84;99777.94;5008116;28;20026;-85
2022/10/01 09:52:59;;;;;;;14.32;9.50;;;;;;;24.73;42.45;99803.09;5003468;28;20026;-86
2022/10/01 09:55:25;;;;;;;13.25;7.78;;;;;;;24.85;42.56;99814.03;5010813;28;20027;-86
2022/10/01 09:58:09;;;;;;;20.05;7.15;;;;;;;24.87;42.06;99800.13;4999655;28;20061;-85
2022/10/01 10:00:36;;;;;;;10.68;6.38;;;;;;;24.72;41.47;99792.91;5010086;28;20029;-85
2022/10/01 10:03:02;;;;;;;12.43;7.93;;;;;;;24.73;43.47;99798.19;5007391;28;20030;-85
2022/10/01 10:05:38;;;;;;;17.55;7.03;;;;;;;24.67;43.34;99823.56;5009607;28;20121;-86
2022/10/01 10:08:12;;;;;;;17.08;9.02;;;;;;;24.42;43.45;99843.84;4998356;28;20504;-86
2022/10/01 10:10:47;;;;;;;15.98;8.80;;;;;;;24.40;43.17;99846.31;5005505;28;20104;-86
2022/10/01 10:13:49;;;;;;;14.75;9.48;;;;;;;24.16;43.98;99856.69;5007391;28;20021;-86
2022/10/01 10:16:25;;;;;;;20.15;9.93;;;;;;;23.77;45.33;99867.09;4995252;28;20038;-85
2022/10/01 10:18:55;;;;;;;16.73;8.40;;;;;;;23.46;45.85;99875.44;5009595;28;20076;-85
2022/10/01 10:21:24;;;;;;;20.55;9.50;;;;;;;23.30;45.51;99875.88;5000927;28;20022;-85
2022/10/01 10:23:56;;;;;;;14.00;8.57;;;;;;;23.17;45.18;99864.06;5004702;28;20041;-85
2022/10/01 10:26:31;;;;;;;17.27;7.40;;;;;;;23.05;45.76;99874.72;5008481;28;20037;-86
2022/10/01 10:29:01;;;;;;;18.10;9.43;;;;;;;23.02;45.59;99864.13;5013059;28;20124;-86
2022/10/01 10:31:36;;;;;;;26.63;11.23;;;;;;;22.73;46.33;99852.78;5010379;28;20152;-85
2022/10/01 10:34:12;;;;;;;28.02;12.88;;;;;;;22.65;46.45;99863.38;5004389;28;20025;-87
2022/10/01 10:36:39;;;;;;;18.67;10.50;;;;;;;22.56;46.52;99854.41;5013315;28;20029;-86
2022/10/01 10:39:10;;;;;;;15.93;7.28;;;;;;;22.51;46.38;99863.38;5030060;28;20021;-86
2022/10/01 10:41:36;;;;;;;11.20;7.13;;;;;;;22.70;46.75;99916.31;5013454;28;20017;-86
2022/10/01 10:44:05;;;;;;;17.65;8.55;;;;;;;22.71;47.24;99901.63;5005169;28;20133;-86
2022/10/01 10:46:43;;;;;;;11.45;7.35;;;;;;;22.63;48.52;99887.81;5002565;28;20026;-86
2022/10/01 10:49:20;;;;;;;21.02;8.35;;;;;;;22.49;50.74;99878.03;5029450;28;20033;-86
2022/10/01 10:51:52;;;;;;;12.60;6.72;;;;;;;22.32;51.16;99893.88;5014492;28;20022;-86
2022/10/01 10:54:34;;;;;;;16.58;9.60;;;;;;;22.26;52.37;99892.63;5015331;28;20082;-86
2022/10/01 10:57:22;;;;;;;14.73;7.85;;;;;;;22.39;52.55;99878.81;4999623;28;20030;-85
2022/10/01 10:59:58;;;;;;;15.52;10.27;;;;;;;22.82;51.13;99855.19;5012703;28;20030;-85
2022/10/01 11:02:28;;;;;;;48.95;29.35;;;;;;;22.95;51.04;99884.09;5012795;28;20046;-86
2022/10/01 11:04:56;;;;;;;39.60;20.90;;;;;;;22.92;50.72;99896.31;5012581;28;20550;-86
2022/10/01 11:07:24;;;;;;;14.90;10.48;;;;;;;22.89;51.14;99911.41;5012691;28;20472;-85
2022/10/01 11:10:23;;;;;;;18.70;9.50;;;;;;;23.03;50.26;99891.41;5011480;28;20062;-86
2022/10/01 11:13:17;;;;;;;11.48;8.00;;;;;;;23.11;51.38;99864.50;5008589;28;20030;-86
2022/10/01 11:16:23;;;;;;;26.45;17.88;;;;;;;23.23;51.89;99833.91;5007924;28;20030;-87
2022/10/01 11:19:11;;;;;;;30.30;23.33;;;;;;;23.13;52.58;99829.88;5002791;28;20049;-86
2022/10/01 11:22:24;;;;;;;12.48;10.45;;;;;;;23.08;53.50;99816.84;5002388;28;20060;-85
2022/10/01 11:24:49;;;;;;;22.83;11.35;;;;;;;23.28;53.55;99830.63;5019596;28;20037;-87
2022/10/01 11:27:35;;;;;;;27.98;19.65;;;;;;;23.36;52.43;99826.53;5025451;28;20389;-86
2022/10/01 11:30:12;;;;;;;35.15;21.38;;;;;;;23.49;50.76;99803.22;5023749;28;20068;-86
2022/10/01 11:33:07;;;;;;;22.55;13.88;;;;;;;23.42;49.72;99806.94;5018712;28;20121;-86
2022/10/01 11:35:41;;;;;;;24.23;11.20;;;;;;;23.35;49.95;99801.25;5020917;28;20121;-88
2022/10/01 11:38:26;;;;;;;29.27;14.40;;;;;;;23.09;52.83;99772.00;5009275;28;20562;-86
2022/10/01 11:41:19;;;;;;;31.88;12.57;;;;;;;23.12;54.18;99757.72;5012099;28;20041;-85
2022/10/01 11:43:54;;;;;;;28.88;12.77;;;;;;;23.15;53.02;99736.13;5013129;28;20203;-85
2022/10/01 11:46:38;;;;;;;19.67;11.20;;;;;;;23.07;53.68;99712.53;5021347;28;20080;-85
2022/10/01 11:49:07;;;;;;;23.63;9.82;;;;;;;23.09;54.34;99704.38;5022059;28;20120;-85